createdAt,value
2018-03-27T00:00:30.784Z,1009.77
2018-03-27T00:02:24.060Z,1009.81
2018-03-27T00:03:23.971Z,1009.86
2018-03-27T00:05:17.377Z,1009.90
2018-03-27T00:06:17.235Z,1009.87
2018-03-27T00:08:10.494Z,1009.87
2018-03-27T00:09:10.422Z,1009.87
2018-03-27T00:11:03.697Z,1009.83
2018-03-27T00:12:03.609Z,1009.78
2018-03-27T00:13:56.867Z,1009.77
2018-03-27T00:14:56.797Z,1009.76
2018-03-27T00:16:51.064Z,1009.78
2018-03-27T00:17:50.973Z,1009.80
2018-03-27T00:19:44.270Z,1009.83
2018-03-27T00:20:44.158Z,1009.78
2018-03-27T00:22:37.532Z,1009.76
2018-03-27T00:23:37.351Z,1009.75
2018-03-27T00:25:30.624Z,1009.71
2018-03-27T00:26:30.536Z,1009.74
2018-03-27T00:28:23.795Z,1009.80
2018-03-27T00:29:23.723Z,1009.81
2018-03-27T00:31:17.000Z,1009.80
2018-03-27T00:32:16.912Z,1009.78
2018-03-27T00:34:10.281Z,1009.77
2018-03-27T00:35:10.090Z,1009.74
2018-03-27T00:37:03.360Z,1009.70
2018-03-27T00:38:03.271Z,1009.72
2018-03-27T00:39:56.568Z,1009.65
2018-03-27T00:40:56.459Z,1009.63
2018-03-27T00:42:49.709Z,1009.63
2018-03-27T00:43:49.638Z,1009.66
2018-03-27T00:45:42.922Z,1009.68
2018-03-27T00:46:42.829Z,1009.67
2018-03-27T00:48:36.088Z,1009.67
2018-03-27T00:49:36.016Z,1009.69
2018-03-27T00:51:29.322Z,1009.69
2018-03-27T00:52:29.245Z,1009.70
2018-03-27T00:54:22.496Z,1009.68
2018-03-27T00:55:22.425Z,1009.68
2018-03-27T00:57:15.695Z,1009.64
2018-03-27T00:58:15.606Z,1009.66
2018-03-27T01:00:08.906Z,1009.70
2018-03-27T01:01:08.796Z,1009.68
2018-03-27T01:03:02.166Z,1009.72
2018-03-27T01:04:01.998Z,1009.69
2018-03-27T01:05:55.324Z,1009.68
2018-03-27T01:06:55.235Z,1009.70
2018-03-27T01:08:48.604Z,1009.69
2018-03-27T01:09:48.414Z,1009.71
2018-03-27T01:11:41.693Z,1009.65
2018-03-27T01:12:41.604Z,1009.62
2018-03-27T01:14:34.864Z,1009.61
2018-03-27T01:15:34.795Z,1009.62
2018-03-27T01:17:28.063Z,1009.55
2018-03-27T01:18:27.977Z,1009.58
2018-03-27T01:20:21.324Z,1009.56
2018-03-27T01:21:21.240Z,1009.54
2018-03-27T01:23:14.507Z,1009.52
2018-03-27T01:24:14.427Z,1009.54
2018-03-27T01:26:07.815Z,1009.52
2018-03-27T01:27:07.615Z,1009.55
2018-03-27T01:29:00.878Z,1009.46
2018-03-27T01:30:00.812Z,1009.47
2018-03-27T01:31:54.195Z,1009.41
2018-03-27T01:32:53.997Z,1009.40
2018-03-27T01:34:47.306Z,1009.35
2018-03-27T01:35:47.236Z,1009.38
2018-03-27T01:37:40.624Z,1009.35
2018-03-27T01:38:40.425Z,1009.39
2018-03-27T01:40:33.816Z,1009.36
2018-03-27T01:41:33.606Z,1009.33
2018-03-27T01:43:26.866Z,1009.32
2018-03-27T01:44:26.794Z,1009.25
2018-03-27T01:46:20.074Z,1009.28
2018-03-27T01:47:19.984Z,1009.23
2018-03-27T01:49:13.307Z,1009.24
2018-03-27T01:50:13.235Z,1009.20
2018-03-27T01:52:06.515Z,1009.14
2018-03-27T01:53:06.426Z,1009.16
2018-03-27T01:54:59.683Z,1009.15
2018-03-27T01:55:59.613Z,1009.13
2018-03-27T01:57:52.891Z,1009.15
2018-03-27T01:58:52.802Z,1009.13
2018-03-27T02:00:46.085Z,1009.14
2018-03-27T02:01:46.008Z,1009.14
2018-03-27T02:03:39.308Z,1009.13
2018-03-27T02:04:39.236Z,1009.09
2018-03-27T02:06:32.506Z,1009.11
2018-03-27T02:07:32.416Z,1009.08
2018-03-27T02:09:25.676Z,1009.08
2018-03-27T02:10:25.606Z,1009.09
2018-03-27T02:12:18.884Z,1009.07
2018-03-27T02:13:18.794Z,1009.09
2018-03-27T02:15:12.165Z,1009.06
2018-03-27T02:16:11.985Z,1009.08
2018-03-27T02:18:05.373Z,1009.07
2018-03-27T02:19:05.235Z,1009.06
2018-03-27T02:20:58.513Z,1009.04
2018-03-27T02:21:58.425Z,1009.04
2018-03-27T02:23:51.685Z,1009.07
2018-03-27T02:24:51.614Z,1009.06
2018-03-27T02:26:45.002Z,1009.05
2018-03-27T02:27:44.794Z,1009.04
2018-03-27T02:29:38.045Z,1009.05
2018-03-27T02:30:37.972Z,1009.07
2018-03-27T02:32:31.328Z,1009.09
2018-03-27T02:33:31.236Z,1009.05
2018-03-27T02:35:24.610Z,1009.04
2018-03-27T02:36:24.426Z,1009.03
2018-03-27T02:38:17.704Z,1009.04
2018-03-27T02:39:17.615Z,1009.02
2018-03-27T02:41:10.882Z,1009.01
2018-03-27T02:42:10.795Z,1009.03
2018-03-27T02:44:04.162Z,1008.99
2018-03-27T02:45:03.989Z,1008.94
2018-03-27T02:46:57.327Z,1008.96
2018-03-27T02:47:57.236Z,1008.96
2018-03-27T02:49:50.488Z,1008.92
2018-03-27T02:50:50.416Z,1008.90
2018-03-27T02:52:44.803Z,1008.84
2018-03-27T02:53:44.605Z,1008.87
2018-03-27T02:55:37.864Z,1008.83
2018-03-27T02:56:37.795Z,1008.84
2018-03-27T02:58:31.069Z,1008.83
2018-03-27T02:59:30.980Z,1008.77
2018-03-27T03:01:24.258Z,1008.75
2018-03-27T03:02:24.168Z,1008.80
2018-03-27T03:04:17.536Z,1008.74
2018-03-27T03:05:17.357Z,1008.75
2018-03-27T03:07:11.744Z,1008.77
2018-03-27T03:08:11.537Z,1008.75
2018-03-27T03:10:04.831Z,1008.72
2018-03-27T03:11:04.763Z,1008.71
2018-03-27T03:12:58.029Z,1008.69
2018-03-27T03:13:57.939Z,1008.70
2018-03-27T03:15:51.309Z,1008.73
2018-03-27T03:16:51.126Z,1008.73
2018-03-27T03:18:44.403Z,1008.70
2018-03-27T03:19:44.317Z,1008.70
2018-03-27T03:21:37.588Z,1008.71
2018-03-27T03:22:37.502Z,1008.71
2018-03-27T03:24:30.758Z,1008.73
2018-03-27T03:25:30.687Z,1008.76
2018-03-27T03:27:23.963Z,1008.74
2018-03-27T03:28:23.875Z,1008.80
2018-03-27T03:30:17.248Z,1008.76
2018-03-27T03:31:17.057Z,1008.77
2018-03-27T03:33:10.331Z,1008.76
2018-03-27T03:34:10.241Z,1008.73
2018-03-27T03:36:03.500Z,1008.86
2018-03-27T03:37:03.429Z,1008.82
2018-03-27T03:38:56.707Z,1008.87
2018-03-27T03:39:56.616Z,1008.91
2018-03-27T03:41:49.892Z,1008.92
2018-03-27T03:42:49.801Z,1008.89
2018-03-27T03:44:43.061Z,1008.86
2018-03-27T03:45:42.990Z,1008.88
2018-03-27T03:47:36.266Z,1008.82
2018-03-27T03:48:36.174Z,1008.86
2018-03-27T03:50:29.432Z,1008.80
2018-03-27T03:51:29.368Z,1008.78
2018-03-27T03:53:22.639Z,1008.76
2018-03-27T03:54:22.551Z,1008.76
2018-03-27T03:56:15.806Z,1008.77
2018-03-27T03:57:15.742Z,1008.75
2018-03-27T03:59:09.012Z,1008.72
2018-03-27T04:00:08.922Z,1008.71
2018-03-27T04:02:03.203Z,1008.70
2018-03-27T04:03:03.119Z,1008.70
2018-03-27T04:04:56.478Z,1008.67
2018-03-27T04:05:56.293Z,1008.68
2018-03-27T04:07:49.569Z,1008.67
2018-03-27T04:08:49.478Z,1008.67
2018-03-27T04:10:42.738Z,1008.63
2018-03-27T04:11:42.664Z,1008.63
2018-03-27T04:13:35.943Z,1008.62
2018-03-27T04:14:35.846Z,1008.64
2018-03-27T04:16:29.104Z,1008.62
2018-03-27T04:17:29.041Z,1008.65
2018-03-27T04:19:22.312Z,1008.65
2018-03-27T04:20:22.217Z,1008.69
2018-03-27T04:22:15.493Z,1008.71
2018-03-27T04:23:15.405Z,1008.68
2018-03-27T04:25:08.665Z,1008.67
2018-03-27T04:26:08.657Z,1008.64
2018-03-27T04:28:01.979Z,1008.66
2018-03-27T04:29:01.784Z,1008.62
2018-03-27T04:30:55.035Z,1008.60
2018-03-27T04:31:54.962Z,1008.59
2018-03-27T04:33:48.260Z,1008.57
2018-03-27T04:34:48.150Z,1008.56
2018-03-27T04:36:41.515Z,1008.55
2018-03-27T04:37:41.324Z,1008.52
2018-03-27T04:39:34.605Z,1008.52
2018-03-27T04:40:34.510Z,1008.52
2018-03-27T04:42:27.898Z,1008.44
2018-03-27T04:43:27.696Z,1008.42
2018-03-27T04:45:20.952Z,1008.48
2018-03-27T04:46:20.881Z,1008.43
2018-03-27T04:48:14.155Z,1008.43
2018-03-27T04:49:14.064Z,1008.43
2018-03-27T04:51:07.324Z,1008.44
2018-03-27T04:52:07.248Z,1008.41
2018-03-27T04:54:01.525Z,1008.46
2018-03-27T04:55:01.433Z,1008.43
2018-03-27T04:56:54.803Z,1008.48
2018-03-27T04:57:54.614Z,1008.48
2018-03-27T04:59:47.998Z,1008.51
2018-03-27T05:00:47.797Z,1008.57
2018-03-27T05:02:41.073Z,1008.60
2018-03-27T05:03:40.983Z,1008.59
2018-03-27T05:05:34.351Z,1008.63
2018-03-27T05:06:34.168Z,1008.57
2018-03-27T05:08:27.554Z,1008.57
2018-03-27T05:09:27.358Z,1008.54
2018-03-27T05:11:20.610Z,1008.51
2018-03-27T05:12:20.539Z,1008.52
2018-03-27T05:14:13.808Z,1008.48
2018-03-27T05:15:13.715Z,1008.51
2018-03-27T05:17:07.085Z,1008.48
2018-03-27T05:18:06.894Z,1008.50
2018-03-27T05:20:00.281Z,1008.52
2018-03-27T05:21:00.078Z,1008.51
2018-03-27T05:22:53.355Z,1008.51
2018-03-27T05:23:53.265Z,1008.49
2018-03-27T05:25:46.522Z,1008.51
2018-03-27T05:26:46.450Z,1008.51
2018-03-27T05:28:39.837Z,1008.46
2018-03-27T05:29:39.634Z,1008.49
2018-03-27T05:31:32.891Z,1008.56
2018-03-27T05:32:32.818Z,1008.56
2018-03-27T05:34:26.205Z,1008.55
2018-03-27T05:35:26.004Z,1008.49
2018-03-27T05:37:19.373Z,1008.53
2018-03-27T05:38:19.234Z,1008.53
2018-03-27T05:40:12.498Z,1008.54
2018-03-27T05:41:12.408Z,1008.59
2018-03-27T05:43:05.683Z,1008.55
2018-03-27T05:44:05.592Z,1008.61
2018-03-27T05:45:58.857Z,1008.57
2018-03-27T05:46:58.777Z,1008.61
2018-03-27T05:48:52.058Z,1008.61
2018-03-27T05:49:51.961Z,1008.59
2018-03-27T05:51:45.273Z,1008.60
2018-03-27T05:52:45.152Z,1008.59
2018-03-27T05:54:38.427Z,1008.57
2018-03-27T05:55:38.338Z,1008.57
2018-03-27T05:57:31.585Z,1008.50
2018-03-27T05:58:31.511Z,1008.48
2018-03-27T06:00:24.903Z,1008.51
2018-03-27T06:01:24.697Z,1008.47
2018-03-27T06:03:18.137Z,1008.46
2018-03-27T06:04:17.881Z,1008.47
2018-03-27T06:06:11.137Z,1008.46
2018-03-27T06:07:11.066Z,1008.45
2018-03-27T06:09:04.449Z,1008.44
2018-03-27T06:10:04.246Z,1008.43
2018-03-27T06:11:57.502Z,1008.43
2018-03-27T06:12:57.430Z,1008.43
2018-03-27T06:14:50.705Z,1008.38
2018-03-27T06:15:50.614Z,1008.39
2018-03-27T06:17:43.871Z,1008.36
2018-03-27T06:18:43.833Z,1008.40
2018-03-27T06:20:37.193Z,1008.39
2018-03-27T06:21:37.011Z,1008.43
2018-03-27T06:23:30.395Z,1008.43
2018-03-27T06:24:30.191Z,1008.42
2018-03-27T06:26:23.560Z,1008.43
2018-03-27T06:27:23.415Z,1008.43
2018-03-27T06:29:16.649Z,1008.39
2018-03-27T06:30:16.555Z,1008.42
2018-03-27T06:32:09.922Z,1008.39
2018-03-27T06:33:09.740Z,1008.40
2018-03-27T06:35:03.013Z,1008.38
2018-03-27T06:36:02.921Z,1008.40
2018-03-27T06:37:56.289Z,1008.42
2018-03-27T06:38:56.103Z,1008.45
2018-03-27T06:40:49.378Z,1008.36
2018-03-27T06:41:49.288Z,1008.41
2018-03-27T06:43:42.564Z,1008.40
2018-03-27T06:44:42.472Z,1008.36
2018-03-27T06:46:35.723Z,1008.42
2018-03-27T06:47:35.677Z,1008.43
2018-03-27T06:49:29.032Z,1008.41
2018-03-27T06:50:28.836Z,1008.46
2018-03-27T06:52:22.200Z,1008.46
2018-03-27T06:53:22.016Z,1008.45
2018-03-27T06:55:15.402Z,1008.53
2018-03-27T06:56:15.236Z,1008.45
2018-03-27T06:58:08.489Z,1008.39
2018-03-27T06:59:08.446Z,1008.37
2018-03-27T07:01:01.805Z,1008.39
2018-03-27T07:02:01.634Z,1008.42
2018-03-27T07:03:55.010Z,1008.35
2018-03-27T07:04:54.785Z,1008.37
2018-03-27T07:06:48.157Z,1008.34
2018-03-27T07:07:47.986Z,1008.33
2018-03-27T07:09:41.359Z,1008.27
2018-03-27T07:10:41.192Z,1008.33
2018-03-27T07:12:34.420Z,1008.28
2018-03-27T07:13:34.338Z,1008.24
2018-03-27T07:15:27.614Z,1008.28
2018-03-27T07:16:27.542Z,1008.21
2018-03-27T07:18:20.892Z,1008.22
2018-03-27T07:19:20.714Z,1008.21
2018-03-27T07:21:14.039Z,1008.20
2018-03-27T07:22:13.897Z,1008.19
2018-03-27T07:24:07.174Z,1008.23
2018-03-27T07:25:07.082Z,1008.22
2018-03-27T07:27:00.506Z,1008.22
2018-03-27T07:28:00.260Z,1008.28
2018-03-27T07:29:53.534Z,1008.23
2018-03-27T07:30:53.444Z,1008.23
2018-03-27T07:32:46.703Z,1008.23
2018-03-27T07:33:46.632Z,1008.26
2018-03-27T07:35:39.911Z,1008.21
2018-03-27T07:36:39.819Z,1008.22
2018-03-27T07:38:33.190Z,1008.18
2018-03-27T07:39:33.007Z,1008.17
2018-03-27T07:41:26.287Z,1008.20
2018-03-27T07:42:26.195Z,1008.15
2018-03-27T07:44:19.496Z,1008.18
2018-03-27T07:45:19.385Z,1008.20
2018-03-27T07:47:12.752Z,1008.19
2018-03-27T07:48:12.568Z,1008.13
2018-03-27T07:50:05.841Z,1008.21
2018-03-27T07:51:05.754Z,1008.15
2018-03-27T07:52:59.013Z,1008.20
2018-03-27T07:53:58.938Z,1008.18
2018-03-27T07:55:52.220Z,1008.21
2018-03-27T07:56:52.130Z,1008.13
2018-03-27T07:58:45.391Z,1008.13
2018-03-27T07:59:45.320Z,1008.14
2018-03-27T08:01:38.600Z,1008.09
2018-03-27T08:02:38.511Z,1008.07
2018-03-27T08:04:31.396Z,1008.12
2018-03-27T08:05:31.200Z,1008.13
2018-03-27T08:07:24.454Z,1008.10
2018-03-27T08:08:24.382Z,1007.97
2018-03-27T08:10:17.773Z,1007.95
2018-03-27T08:11:17.588Z,1007.92
2018-03-27T08:13:10.830Z,1007.95
2018-03-27T08:14:10.761Z,1007.90
2018-03-27T08:16:04.149Z,1007.87
2018-03-27T08:17:03.950Z,1007.88
2018-03-27T08:18:57.211Z,1007.86
2018-03-27T08:19:57.168Z,1007.85
2018-03-27T08:21:50.420Z,1007.82
2018-03-27T08:22:50.331Z,1007.87
2018-03-27T08:24:43.611Z,1007.79
2018-03-27T08:25:43.520Z,1007.80
2018-03-27T08:27:36.785Z,1007.73
2018-03-27T08:28:36.709Z,1007.69
2018-03-27T08:30:30.097Z,1007.72
2018-03-27T08:31:29.897Z,1007.74
2018-03-27T08:33:23.157Z,1007.77
2018-03-27T08:34:23.085Z,1007.75
2018-03-27T08:36:16.505Z,1007.75
2018-03-27T08:37:16.276Z,1007.74
2018-03-27T08:39:09.536Z,1007.69
2018-03-27T08:40:09.463Z,1007.68
2018-03-27T08:42:02.741Z,1007.64
2018-03-27T08:43:02.652Z,1007.63
2018-03-27T08:44:56.040Z,1007.60
2018-03-27T08:45:55.840Z,1007.59
2018-03-27T08:47:49.100Z,1007.56
2018-03-27T08:48:49.028Z,1007.54
2018-03-27T08:50:42.305Z,1007.56
2018-03-27T08:51:42.221Z,1007.52
2018-03-27T08:53:35.476Z,1007.50
2018-03-27T08:54:35.407Z,1007.52
2018-03-27T08:56:28.684Z,1007.67
2018-03-27T08:57:28.594Z,1007.62
2018-03-27T08:59:21.965Z,1007.58
2018-03-27T09:00:21.783Z,1007.51
2018-03-27T09:02:15.066Z,1007.44
2018-03-27T09:03:14.979Z,1007.52
2018-03-27T09:05:08.259Z,1007.48
2018-03-27T09:06:08.168Z,1007.45
2018-03-27T09:08:01.428Z,1007.33
2018-03-27T09:09:01.362Z,1007.32
2018-03-27T09:10:54.642Z,1007.28
2018-03-27T09:11:54.556Z,1007.29
2018-03-27T09:13:47.829Z,1007.33
2018-03-27T09:14:47.758Z,1007.38
2018-03-27T09:16:41.150Z,1007.29
2018-03-27T09:17:40.946Z,1007.30
2018-03-27T09:19:34.213Z,1007.28
2018-03-27T09:20:34.143Z,1007.20
2018-03-27T09:22:27.535Z,1007.25
2018-03-27T09:23:27.342Z,1007.25
2018-03-27T09:25:20.626Z,1007.25
2018-03-27T09:26:20.543Z,1007.26
2018-03-27T09:28:13.914Z,1007.20
2018-03-27T09:29:13.739Z,1007.17
2018-03-27T09:31:07.139Z,1007.18
2018-03-27T09:32:06.951Z,1007.06
2018-03-27T09:34:00.209Z,1007.14
2018-03-27T09:35:00.141Z,1007.03
2018-03-27T09:36:53.418Z,1007.06
2018-03-27T09:37:53.333Z,1007.05
2018-03-27T09:39:46.603Z,1007.12
2018-03-27T09:40:46.535Z,1007.07
2018-03-27T09:42:40.045Z,1007.03
2018-03-27T09:43:39.791Z,1007.04
2018-03-27T09:45:33.145Z,1007.03
2018-03-27T09:46:32.940Z,1007.04
2018-03-27T09:48:26.204Z,1007.02
2018-03-27T09:49:26.137Z,1007.02
2018-03-27T09:51:19.423Z,1007.02
2018-03-27T09:52:19.338Z,1007.02
2018-03-27T09:54:12.608Z,1007.01
2018-03-27T09:55:12.541Z,1007.00
2018-03-27T09:57:05.826Z,1006.87
2018-03-27T09:58:05.744Z,1006.87
2018-03-27T09:59:59.134Z,1006.90
2018-03-27T10:00:58.948Z,1006.90
2018-03-27T10:02:52.344Z,1006.77
2018-03-27T10:03:52.212Z,1006.75
2018-03-27T10:05:45.445Z,1006.77
2018-03-27T10:06:45.361Z,1006.75
2018-03-27T10:08:38.740Z,1006.66
2018-03-27T10:09:38.568Z,1006.69
2018-03-27T10:11:31.866Z,1006.73
2018-03-27T10:12:31.834Z,1006.69
2018-03-27T10:14:25.111Z,1006.61
2018-03-27T10:15:24.993Z,1006.59
2018-03-27T10:17:18.277Z,1006.59
2018-03-27T10:18:18.192Z,1006.65
2018-03-27T10:20:11.467Z,1006.60
2018-03-27T10:21:11.404Z,1006.58
2018-03-27T10:23:05.705Z,1006.56
2018-03-27T10:24:05.644Z,1006.57
2018-03-27T10:25:58.917Z,1006.53
2018-03-27T10:26:58.835Z,1006.49
2018-03-27T10:28:52.214Z,1006.38
2018-03-27T10:29:52.047Z,1006.46
2018-03-27T10:31:45.340Z,1006.41
2018-03-27T10:32:45.256Z,1006.44
2018-03-27T10:34:38.530Z,1006.31
2018-03-27T10:35:38.462Z,1006.36
2018-03-27T10:37:31.753Z,1006.30
2018-03-27T10:38:31.687Z,1006.25
2018-03-27T10:40:24.945Z,1006.23
2018-03-27T10:41:24.881Z,1006.24
2018-03-27T10:43:19.172Z,1006.16
2018-03-27T10:44:19.092Z,1006.15
2018-03-27T10:46:12.383Z,1006.04
2018-03-27T10:47:12.303Z,1006.11
2018-03-27T10:49:05.574Z,1006.11
2018-03-27T10:50:05.512Z,1005.97
2018-03-27T10:51:58.804Z,1005.94
2018-03-27T10:52:58.721Z,1005.92
2018-03-27T10:54:51.993Z,1005.92
2018-03-27T10:55:51.929Z,1005.92
2018-03-27T10:57:45.220Z,1005.88
2018-03-27T10:58:45.132Z,1005.91
2018-03-27T11:00:38.406Z,1005.84
2018-03-27T11:01:38.339Z,1005.86
2018-03-27T11:03:31.735Z,1005.84
2018-03-27T11:04:31.541Z,1005.83
2018-03-27T11:06:24.937Z,1005.85
2018-03-27T11:07:24.746Z,1005.84
2018-03-27T11:09:18.026Z,1005.77
2018-03-27T11:10:17.952Z,1005.80
2018-03-27T11:12:11.239Z,1005.79
2018-03-27T11:13:11.157Z,1005.81
2018-03-27T11:15:04.425Z,1005.68
2018-03-27T11:16:04.360Z,1005.66
2018-03-27T11:17:57.646Z,1005.60
2018-03-27T11:18:57.562Z,1005.56
2018-03-27T11:20:50.834Z,1005.57
2018-03-27T11:21:50.769Z,1005.54
2018-03-27T11:23:44.290Z,1005.53
2018-03-27T11:24:43.975Z,1005.55
2018-03-27T11:26:37.260Z,1005.55
2018-03-27T11:27:37.170Z,1005.54
2018-03-27T11:29:30.440Z,1005.44
2018-03-27T11:30:30.370Z,1005.41
2018-03-27T11:32:23.776Z,1005.35
2018-03-27T11:33:23.580Z,1005.41
2018-03-27T11:35:16.851Z,1005.37
2018-03-27T11:36:16.784Z,1005.31
2018-03-27T11:38:10.075Z,1005.25
2018-03-27T11:39:10.032Z,1005.23
2018-03-27T11:41:03.378Z,1005.17
2018-03-27T11:42:03.247Z,1005.16
2018-03-27T11:43:56.535Z,1005.09
2018-03-27T11:44:56.451Z,1005.06
2018-03-27T11:46:49.734Z,1005.08
2018-03-27T11:47:49.648Z,1005.09
2018-03-27T11:49:43.025Z,1005.06
2018-03-27T11:50:42.854Z,1005.05
2018-03-27T11:52:36.251Z,1004.93
2018-03-27T11:53:36.058Z,1004.92
2018-03-27T11:55:29.436Z,1004.82
2018-03-27T11:56:29.264Z,1004.82
2018-03-27T11:58:22.553Z,1004.75
2018-03-27T11:59:22.470Z,1004.77
2018-03-27T12:01:15.744Z,1004.70
2018-03-27T12:02:15.676Z,1004.75
2018-03-27T12:04:08.966Z,1004.69
2018-03-27T12:05:08.881Z,1004.69
2018-03-27T12:07:02.275Z,1004.72
2018-03-27T12:08:02.077Z,1004.71
2018-03-27T12:09:55.459Z,1004.71
2018-03-27T12:10:55.282Z,1004.63
2018-03-27T12:12:48.678Z,1004.58
2018-03-27T12:13:48.487Z,1004.53
2018-03-27T12:15:41.756Z,1004.55
2018-03-27T12:16:41.689Z,1004.53
2018-03-27T12:18:34.984Z,1004.53
2018-03-27T12:19:34.899Z,1004.51
2018-03-27T12:21:28.172Z,1004.47
2018-03-27T12:22:28.111Z,1004.45
2018-03-27T12:24:21.392Z,1004.41
2018-03-27T12:25:21.307Z,1004.42
2018-03-27T12:27:14.701Z,1004.34
2018-03-27T12:28:14.505Z,1004.28
2018-03-27T12:30:07.879Z,1004.30
2018-03-27T12:31:07.712Z,1004.30
2018-03-27T12:33:01.001Z,1004.26
2018-03-27T12:34:00.914Z,1004.23
2018-03-27T12:35:54.184Z,1004.20
2018-03-27T12:36:54.125Z,1004.22
2018-03-27T12:38:47.513Z,1004.23
2018-03-27T12:39:47.325Z,1004.14
2018-03-27T12:41:40.594Z,1004.06
2018-03-27T12:42:40.527Z,1004.07
2018-03-27T12:44:33.819Z,1004.02
2018-03-27T12:45:33.734Z,1004.00
2018-03-27T12:47:27.015Z,1004.04
2018-03-27T12:48:26.930Z,1003.99
2018-03-27T12:50:20.307Z,1004.05
2018-03-27T12:51:20.133Z,1004.05
2018-03-27T12:53:13.584Z,1004.06
2018-03-27T12:54:13.338Z,1004.09
2018-03-27T12:56:06.712Z,1004.08
2018-03-27T12:57:06.540Z,1004.03
2018-03-27T12:58:59.830Z,1003.99
2018-03-27T12:59:59.746Z,1003.94
2018-03-27T13:01:53.014Z,1003.97
2018-03-27T13:02:52.950Z,1003.93
2018-03-27T13:04:46.345Z,1003.91
2018-03-27T13:05:46.177Z,1003.88
2018-03-27T13:07:39.547Z,1003.83
2018-03-27T13:08:39.357Z,1003.86
2018-03-27T13:10:32.626Z,1003.83
2018-03-27T13:11:32.558Z,1003.72
2018-03-27T13:13:25.846Z,1003.84
2018-03-27T13:14:25.760Z,1003.79
2018-03-27T13:16:19.028Z,1003.73
2018-03-27T13:17:18.963Z,1003.74
2018-03-27T13:19:12.250Z,1003.68
2018-03-27T13:20:12.166Z,1003.66
2018-03-27T13:22:05.437Z,1003.65
2018-03-27T13:23:05.369Z,1003.60
2018-03-27T13:24:58.765Z,1003.55
2018-03-27T13:25:58.572Z,1003.54
2018-03-27T13:27:51.967Z,1003.52
2018-03-27T13:28:51.776Z,1003.46
2018-03-27T13:30:45.197Z,1003.42
2018-03-27T13:31:44.984Z,1003.37
2018-03-27T13:33:38.375Z,1003.34
2018-03-27T13:34:38.186Z,1003.39
2018-03-27T13:36:31.444Z,1003.41
2018-03-27T13:37:31.377Z,1003.32
2018-03-27T13:39:24.665Z,1003.35
2018-03-27T13:40:24.581Z,1003.34
2018-03-27T13:42:17.355Z,1003.38
2018-03-27T13:43:17.288Z,1003.31
2018-03-27T13:45:10.688Z,1003.29
2018-03-27T13:46:10.522Z,1003.24
2018-03-27T13:48:03.930Z,1003.21
2018-03-27T13:49:03.696Z,1003.16
2018-03-27T13:50:57.071Z,1003.14
2018-03-27T13:51:56.896Z,1003.13
2018-03-27T13:53:50.182Z,1003.09
2018-03-27T13:54:50.098Z,1003.09
2018-03-27T13:56:43.474Z,1003.08
2018-03-27T13:57:43.292Z,1003.02
2018-03-27T13:59:36.578Z,1003.13
2018-03-27T14:00:36.494Z,1003.08
2018-03-27T14:02:29.779Z,1003.03
2018-03-27T14:03:29.694Z,1003.06
2018-03-27T14:05:23.087Z,1003.09
2018-03-27T14:06:22.895Z,1002.99
2018-03-27T14:08:16.180Z,1002.95
2018-03-27T14:09:16.098Z,1002.91
2018-03-27T14:11:09.366Z,1002.92
2018-03-27T14:12:09.298Z,1002.94
2018-03-27T14:14:02.593Z,1002.90
2018-03-27T14:15:02.539Z,1002.88
2018-03-27T14:16:55.760Z,1002.89
2018-03-27T14:17:55.694Z,1002.77
2018-03-27T14:19:48.981Z,1002.74
2018-03-27T14:20:48.897Z,1002.76
2018-03-27T14:22:42.203Z,1002.67
2018-03-27T14:23:42.122Z,1002.78
2018-03-27T14:25:35.478Z,1002.77
2018-03-27T14:26:35.299Z,1002.74
2018-03-27T14:28:28.693Z,1002.70
2018-03-27T14:29:28.502Z,1002.71
2018-03-27T14:31:21.773Z,1002.63
2018-03-27T14:32:21.708Z,1002.63
2018-03-27T14:34:14.995Z,1002.53
2018-03-27T14:35:14.909Z,1002.53
2018-03-27T14:37:08.169Z,1002.49
2018-03-27T14:38:08.105Z,1002.47
2018-03-27T14:40:01.505Z,1002.47
2018-03-27T14:41:01.311Z,1002.42
2018-03-27T14:42:55.622Z,1002.43
2018-03-27T14:43:55.518Z,1002.39
2018-03-27T14:45:48.788Z,1002.36
2018-03-27T14:46:48.746Z,1002.37
2018-03-27T14:48:42.114Z,1002.37
2018-03-27T14:49:41.926Z,1002.33
2018-03-27T14:51:35.193Z,1002.34
2018-03-27T14:52:35.127Z,1002.28
2018-03-27T14:54:28.416Z,1002.21
2018-03-27T14:55:28.331Z,1002.26
2018-03-27T14:57:21.705Z,1002.20
2018-03-27T14:58:21.523Z,1002.18
2018-03-27T15:00:14.811Z,1002.20
2018-03-27T15:01:14.726Z,1002.22
2018-03-27T15:03:08.141Z,1002.15
2018-03-27T15:04:07.931Z,1002.14
2018-03-27T15:06:01.199Z,1002.10
2018-03-27T15:07:01.153Z,1002.16
2018-03-27T15:08:54.417Z,1002.07
2018-03-27T15:09:54.331Z,1002.11
2018-03-27T15:11:47.600Z,1002.06
2018-03-27T15:12:47.534Z,1002.06
2018-03-27T15:14:40.928Z,1002.04
2018-03-27T15:15:40.736Z,1002.00
2018-03-27T15:17:33.997Z,1002.06
2018-03-27T15:18:33.927Z,1002.04
2018-03-27T15:20:27.219Z,1002.04
2018-03-27T15:21:27.131Z,1002.04
2018-03-27T15:23:20.524Z,1002.01
2018-03-27T15:24:20.337Z,1002.01
2018-03-27T15:26:13.599Z,1001.99
2018-03-27T15:27:13.533Z,1001.95
2018-03-27T15:29:06.822Z,1002.04
2018-03-27T15:30:06.737Z,1002.02
2018-03-27T15:32:00.116Z,1001.97
2018-03-27T15:32:59.944Z,1001.99
2018-03-27T15:34:53.224Z,1002.00
2018-03-27T15:35:53.142Z,1001.97
2018-03-27T15:37:46.410Z,1001.86
2018-03-27T15:38:46.349Z,1001.89
2018-03-27T15:40:39.630Z,1001.84
2018-03-27T15:41:39.552Z,1001.83
2018-03-27T15:43:32.831Z,1001.85
2018-03-27T15:44:32.748Z,1001.88
2018-03-27T15:46:26.015Z,1001.76
2018-03-27T15:47:25.949Z,1001.78
2018-03-27T15:49:19.343Z,1001.77
2018-03-27T15:50:19.156Z,1001.74
2018-03-27T15:52:12.530Z,1001.75
2018-03-27T15:53:12.361Z,1001.71
2018-03-27T15:55:05.753Z,1001.72
2018-03-27T15:56:05.561Z,1001.69
2018-03-27T15:57:58.948Z,1001.69
2018-03-27T15:58:58.763Z,1001.69
2018-03-27T16:00:52.050Z,1001.67
2018-03-27T16:01:51.968Z,1001.67
2018-03-27T16:03:45.328Z,1001.66
2018-03-27T16:04:45.244Z,1001.63
2018-03-27T16:06:39.515Z,1001.63
2018-03-27T16:07:39.449Z,1001.61
2018-03-27T16:09:32.738Z,1001.60
2018-03-27T16:10:32.650Z,1001.62
2018-03-27T16:12:25.918Z,1001.60
2018-03-27T16:13:25.888Z,1001.54
2018-03-27T16:15:19.247Z,1001.58
2018-03-27T16:16:19.053Z,1001.55
2018-03-27T16:18:13.322Z,1001.53
2018-03-27T16:19:13.256Z,1001.48
2018-03-27T16:21:06.542Z,1001.43
2018-03-27T16:22:06.461Z,1001.46
2018-03-27T16:23:59.746Z,1001.53
2018-03-27T16:24:59.659Z,1001.45
2018-03-27T16:26:52.929Z,1001.43
2018-03-27T16:27:52.863Z,1001.40
2018-03-27T16:29:46.257Z,1001.40
2018-03-27T16:30:46.064Z,1001.33
2018-03-27T16:32:39.334Z,1001.37
2018-03-27T16:33:39.264Z,1001.36
2018-03-27T16:35:32.550Z,1001.30
2018-03-27T16:36:32.471Z,1001.39
2018-03-27T16:38:25.843Z,1001.33
2018-03-27T16:39:25.665Z,1001.27
2018-03-27T16:41:18.949Z,1001.24
2018-03-27T16:42:18.859Z,1001.28
2018-03-27T16:44:12.261Z,1001.25
2018-03-27T16:45:12.058Z,1001.20
2018-03-27T16:47:05.938Z,1001.21
2018-03-27T16:48:05.256Z,1001.21
2018-03-27T16:49:58.538Z,1001.19
2018-03-27T16:50:58.452Z,1001.20
2018-03-27T16:52:51.717Z,1001.21
2018-03-27T16:53:51.647Z,1001.17
2018-03-27T16:55:44.929Z,1001.14
2018-03-27T16:56:44.841Z,1001.14
2018-03-27T16:58:38.106Z,1001.10
2018-03-27T16:59:38.036Z,1001.14
2018-03-27T17:01:31.324Z,1001.17
2018-03-27T17:02:31.238Z,1001.08
2018-03-27T17:04:24.629Z,1001.14
2018-03-27T17:05:24.431Z,1001.11
2018-03-27T17:07:17.700Z,1001.13
2018-03-27T17:08:17.625Z,1001.07
2018-03-27T17:10:10.906Z,1001.05
2018-03-27T17:11:10.816Z,1001.07
2018-03-27T17:13:04.188Z,1001.04
2018-03-27T17:14:04.007Z,1001.01
2018-03-27T17:15:57.325Z,1001.06
2018-03-27T17:16:57.237Z,1001.05
2018-03-27T17:18:50.499Z,1001.08
2018-03-27T17:19:50.432Z,1001.08
2018-03-27T17:21:43.711Z,1001.03
2018-03-27T17:22:43.622Z,1001.01
2018-03-27T17:24:36.903Z,1001.02
2018-03-27T17:25:36.815Z,1001.01
2018-03-27T17:27:30.189Z,1000.99